sensor_id;sensor_type;location;lat;lon;timestamp;pressure;altitude;pressure_sealevel;temperature;humidity
55032;BME280;40928;51.076;7.950;2023-03-20T00:01:22;97230.38;;;8.78;100.00
55032;BME280;40928;51.076;7.950;2023-03-20T00:03:49;97229.34;;;8.79;100.00
55032;BME280;40928;51.076;7.950;2023-03-20T00:06:16;97224.03;;;8.79;100.00
55032;BME280;40928;51.076;7.950;2023-03-20T00:08:43;97222.16;;;8.80;100.00
55032;BME280;40928;51.076;7.950;2023-03-20T00:11:33;97221.56;;;8.78;100.00
55032;BME280;40928;51.076;7.950;2023-03-20T00:14:06;97220.97;;;8.76;100.00
55032;BME280;40928;51.076;7.950;2023-03-20T00:16:35;97235.31;;;8.75;100.00
55032;BME280;40928;51.076;7.950;2023-03-20T00:19:01;97234.72;;;8.73;100.00
55032;BME280;40928;51.076;7.950;2023-03-20T00:21:27;97228.84;;;8.71;100.00
55032;BME280;40928;51.076;7.950;2023-03-20T00:23:53;97236.16;;;8.75;100.00
55032;BME280;40928;51.076;7.950;2023-03-20T00:26:21;97237.78;;;8.76;100.00
55032;BME280;40928;51.076;7.950;2023-03-20T00:28:49;97228.75;;;8.77;100.00
55032;BME280;40928;51.076;7.950;2023-03-20T00:31:26;97231.03;;;8.74;100.00
55032;BME280;40928;51.076;7.950;2023-03-20T00:33:57;97227.13;;;8.76;100.00
55032;BME280;40928;51.076;7.950;2023-03-20T00:36:23;97221.81;;;8.76;100.00
55032;BME280;40928;51.076;7.950;2023-03-20T00:38:53;97224.47;;;8.76;100.00
55032;BME280;40928;51.076;7.950;2023-03-20T00:43:46;97227.94;;;8.77;100.00
55032;BME280;40928;51.076;7.950;2023-03-20T00:46:13;97227.72;;;8.78;100.00
55032;BME280;40928;51.076;7.950;2023-03-20T00:48:40;97229.13;;;8.81;100.00
55032;BME280;40928;51.076;7.950;2023-03-20T00:51:08;97230.75;;;8.82;100.00
55032;BME280;40928;51.076;7.950;2023-03-20T00:53:35;97229.34;;;8.79;100.00
55032;BME280;40928;51.076;7.950;2023-03-20T00:56:01;97234.28;;;8.76;100.00
55032;BME280;40928;51.076;7.950;2023-03-20T00:58:27;97234.28;;;8.76;100.00
55032;BME280;40928;51.076;7.950;2023-03-20T01:00:53;97237.19;;;8.74;100.00
55032;BME280;40928;51.076;7.950;2023-03-20T01:03:21;97233.69;;;8.74;100.00
55032;BME280;40928;51.076;7.950;2023-03-20T01:05:48;97232.66;;;8.75;100.00
55032;BME280;40928;51.076;7.950;2023-03-20T01:08:17;97238.56;;;8.77;100.00
55032;BME280;40928;51.076;7.950;2023-03-20T01:10:48;97235.72;;;8.78;100.00
55032;BME280;40928;51.076;7.950;2023-03-20T01:13:21;97248.00;;;8.79;100.00
55032;BME280;40928;51.076;7.950;2023-03-20T01:15:48;97243.47;;;8.80;100.00
55032;BME280;40928;51.076;7.950;2023-03-20T01:18:16;97249.59;;;8.80;100.00
55032;BME280;40928;51.076;7.950;2023-03-20T01:20:42;97250.84;;;8.78;100.00
55032;BME280;40928;51.076;7.950;2023-03-20T01:23:08;97250.06;;;8.77;100.00
55032;BME280;40928;51.076;7.950;2023-03-20T01:25:35;97244.34;;;8.74;100.00
55032;BME280;40928;51.076;7.950;2023-03-20T01:28:03;97241.91;;;8.72;100.00
55032;BME280;40928;51.076;7.950;2023-03-20T01:30:36;97247.75;;;8.62;100.00
55032;BME280;40928;51.076;7.950;2023-03-20T01:35:35;97251.78;;;8.46;100.00
55032;BME280;40928;51.076;7.950;2023-03-20T01:38:11;97246.88;;;8.43;100.00
55032;BME280;40928;51.076;7.950;2023-03-20T01:41:07;97250.56;;;8.42;100.00
55032;BME280;40928;51.076;7.950;2023-03-20T01:43:37;97237.69;;;8.39;100.00
55032;BME280;40928;51.076;7.950;2023-03-20T01:51:18;97241.81;;;8.35;100.00
55032;BME280;40928;51.076;7.950;2023-03-20T01:53:47;97249.25;;;8.26;100.00
55032;BME280;40928;51.076;7.950;2023-03-20T01:56:14;97242.91;;;8.27;100.00
55032;BME280;40928;51.076;7.950;2023-03-20T01:58:51;97241.88;;;8.28;100.00
55032;BME280;40928;51.076;7.950;2023-03-20T02:01:18;97241.50;;;8.25;100.00
55032;BME280;40928;51.076;7.950;2023-03-20T02:03:47;97249.97;;;8.15;100.00
55032;BME280;40928;51.076;7.950;2023-03-20T02:06:29;97254.69;;;8.13;100.00
55032;BME280;40928;51.076;7.950;2023-03-20T02:09:03;97252.16;;;7.99;100.00
55032;BME280;40928;51.076;7.950;2023-03-20T02:11:36;97254.53;;;7.82;100.00
55032;BME280;40928;51.076;7.950;2023-03-20T02:14:02;97253.50;;;7.83;100.00
55032;BME280;40928;51.076;7.950;2023-03-20T02:16:36;97257.66;;;7.72;100.00
55032;BME280;40928;51.076;7.950;2023-03-20T02:25:29;97265.81;;;7.45;100.00
55032;BME280;40928;51.076;7.950;2023-03-20T02:28:25;97270.50;;;7.43;100.00
55032;BME280;40928;51.076;7.950;2023-03-20T02:31:10;97269.28;;;7.39;100.00
55032;BME280;40928;51.076;7.950;2023-03-20T02:47:21;97264.06;;;6.60;100.00
55032;BME280;40928;51.076;7.950;2023-03-20T02:52:32;97267.97;;;6.37;100.00
55032;BME280;40928;51.076;7.950;2023-03-20T02:55:27;97252.88;;;6.38;100.00
55032;BME280;40928;51.076;7.950;2023-03-20T02:58:09;97261.66;;;6.32;100.00
55032;BME280;40928;51.076;7.950;2023-03-20T03:01:09;97264.50;;;6.37;100.00
55032;BME280;40928;51.076;7.950;2023-03-20T03:03:44;97277.97;;;6.35;100.00
55032;BME280;40928;51.076;7.950;2023-03-20T03:06:27;97278.19;;;6.34;100.00
55032;BME280;40928;51.076;7.950;2023-03-20T03:11:44;97279.81;;;6.35;100.00
55032;BME280;40928;51.076;7.950;2023-03-20T03:14:18;97272.66;;;6.29;100.00
55032;BME280;40928;51.076;7.950;2023-03-20T03:16:47;97282.03;;;6.24;100.00
55032;BME280;40928;51.076;7.950;2023-03-20T03:19:19;97262.88;;;6.16;100.00
55032;BME280;40928;51.076;7.950;2023-03-20T03:21:47;97268.38;;;6.21;100.00
55032;BME280;40928;51.076;7.950;2023-03-20T03:24:27;97271.44;;;6.24;100.00
55032;BME280;40928;51.076;7.950;2023-03-20T03:26:55;97271.63;;;6.30;100.00
55032;BME280;40928;51.076;7.950;2023-03-20T03:29:22;97282.88;;;6.32;100.00
55032;BME280;40928;51.076;7.950;2023-03-20T03:31:49;97275.53;;;6.34;100.00
55032;BME280;40928;51.076;7.950;2023-03-20T03:34:16;97279.41;;;6.38;100.00
55032;BME280;40928;51.076;7.950;2023-03-20T03:47:33;97298.38;;;6.48;100.00
55032;BME280;40928;51.076;7.950;2023-03-20T03:50:09;97300.38;;;6.53;100.00
55032;BME280;40928;51.076;7.950;2023-03-20T03:52:37;97314.28;;;6.55;100.00
55032;BME280;40928;51.076;7.950;2023-03-20T03:55:14;97310.59;;;6.56;100.00
55032;BME280;40928;51.076;7.950;2023-03-20T03:58:03;97323.66;;;6.58;100.00
55032;BME280;40928;51.076;7.950;2023-03-20T04:00:31;97317.13;;;6.60;100.00
55032;BME280;40928;51.076;7.950;2023-03-20T04:02:57;97319.34;;;6.63;100.00
55032;BME280;40928;51.076;7.950;2023-03-20T04:05:27;97320.19;;;6.64;100.00
55032;BME280;40928;51.076;7.950;2023-03-20T04:07:58;97315.50;;;6.66;100.00
55032;BME280;40928;51.076;7.950;2023-03-20T04:10:23;97310.97;;;6.66;100.00
55032;BME280;40928;51.076;7.950;2023-03-20T04:12:49;97318.75;;;6.61;100.00
55032;BME280;40928;51.076;7.950;2023-03-20T04:15:15;97308.34;;;6.60;100.00
55032;BME280;40928;51.076;7.950;2023-03-20T04:17:42;97297.53;;;6.61;100.00
55032;BME280;40928;51.076;7.950;2023-03-20T04:20:10;97289.56;;;6.41;100.00
55032;BME280;40928;51.076;7.950;2023-03-20T04:22:36;97287.75;;;6.35;100.00
55032;BME280;40928;51.076;7.950;2023-03-20T04:25:07;97292.47;;;6.33;100.00
55032;BME280;40928;51.076;7.950;2023-03-20T04:27:33;97288.56;;;6.35;100.00
55032;BME280;40928;51.076;7.950;2023-03-20T04:30:01;97292.06;;;6.36;100.00
55032;BME280;40928;51.076;7.950;2023-03-20T04:32:45;97277.56;;;6.25;100.00
55032;BME280;40928;51.076;7.950;2023-03-20T04:35:41;97273.50;;;6.22;100.00
55032;BME280;40928;51.076;7.950;2023-03-20T04:38:11;97271.44;;;6.24;100.00
55032;BME280;40928;51.076;7.950;2023-03-20T04:40:37;97261.66;;;6.25;100.00
55032;BME280;40928;51.076;7.950;2023-03-20T04:43:03;97271.44;;;6.24;100.00
55032;BME280;40928;51.076;7.950;2023-03-20T04:45:29;97269.59;;;6.25;100.00
55032;BME280;40928;51.076;7.950;2023-03-20T04:47:55;97274.69;;;6.27;100.00
55032;BME280;40928;51.076;7.950;2023-03-20T04:50:22;97261.25;;;6.28;100.00
55032;BME280;40928;51.076;7.950;2023-03-20T04:52:49;97259.41;;;6.29;100.00
55032;BME280;40928;51.076;7.950;2023-03-20T04:55:15;97269.22;;;6.21;100.00
55032;BME280;40928;51.076;7.950;2023-03-20T04:57:40;97279.19;;;6.19;100.00
55032;BME280;40928;51.076;7.950;2023-03-20T05:00:09;97274.09;;;6.11;100.00
55032;BME280;40928;51.076;7.950;2023-03-20T05:02:36;97288.19;;;6.05;100.00
55032;BME280;40928;51.076;7.950;2023-03-20T05:05:04;97284.91;;;6.03;100.00
55032;BME280;40928;51.076;7.950;2023-03-20T05:07:33;97282.44;;;6.08;100.00
55032;BME280;40928;51.076;7.950;2023-03-20T05:10:04;97280.41;;;6.10;100.00
55032;BME280;40928;51.076;7.950;2023-03-20T05:12:35;97273.69;;;6.14;100.00
55032;BME280;40928;51.076;7.950;2023-03-20T05:15:21;97284.06;;;6.09;100.00
55032;BME280;40928;51.076;7.950;2023-03-20T05:18:05;97284.69;;;6.11;100.00
55032;BME280;40928;51.076;7.950;2023-03-20T05:20:50;97272.06;;;6.00;100.00
55032;BME280;40928;51.076;7.950;2023-03-20T05:23:32;97270.63;;;6.04;100.00
55032;BME280;40928;51.076;7.950;2023-03-20T05:26:23;97273.28;;;6.04;100.00
55032;BME280;40928;51.076;7.950;2023-03-20T05:29:27;97280.00;;;6.00;100.00
55032;BME280;40928;51.076;7.950;2023-03-20T05:32:11;97286.28;;;5.99;100.00
55032;BME280;40928;51.076;7.950;2023-03-20T05:34:52;97283.28;;;6.02;100.00
55032;BME280;40928;51.076;7.950;2023-03-20T05:37:40;97286.28;;;5.99;100.00
55032;BME280;40928;51.076;7.950;2023-03-20T05:40:14;97282.41;;;5.94;100.00
55032;BME280;40928;51.076;7.950;2023-03-20T05:42:59;97279.56;;;5.96;100.00
55032;BME280;40928;51.076;7.950;2023-03-20T05:45:45;97271.84;;;6.01;100.00
55032;BME280;40928;51.076;7.950;2023-03-20T05:48:40;97272.25;;;6.05;100.00
55032;BME280;40928;51.076;7.950;2023-03-20T05:51:15;97269.81;;;6.10;100.00
55032;BME280;40928;51.076;7.950;2023-03-20T05:54:04;97272.44;;;6.10;100.00
55032;BME280;40928;51.076;7.950;2023-03-20T05:56:34;97274.50;;;6.01;100.00
55032;BME280;40928;51.076;7.950;2023-03-20T05:59:18;97266.34;;;6.03;100.00
55032;BME280;40928;51.076;7.950;2023-03-20T06:02:03;97263.88;;;6.08;100.00
55032;BME280;40928;51.076;7.950;2023-03-20T06:04:33;97271.44;;;6.11;100.00
55032;BME280;40928;51.076;7.950;2023-03-20T06:07:14;97277.75;;;6.17;100.00
55032;BME280;40928;51.076;7.950;2023-03-20T06:09:44;97282.88;;;6.18;100.00
55032;BME280;40928;51.076;7.950;2023-03-20T06:12:11;97283.47;;;6.20;100.00
55032;BME280;40928;51.076;7.950;2023-03-20T06:14:37;97285.13;;;6.21;100.00
55032;BME280;40928;51.076;7.950;2023-03-20T06:17:06;97290.44;;;6.15;100.00
55032;BME280;40928;51.076;7.950;2023-03-20T06:19:32;97287.56;;;6.03;100.00
55032;BME280;40928;51.076;7.950;2023-03-20T06:21:57;97292.66;;;6.11;100.00
55032;BME280;40928;51.076;7.950;2023-03-20T06:24:23;97290.22;;;6.09;100.00
55032;BME280;40928;51.076;7.950;2023-03-20T06:26:49;97308.16;;;6.14;100.00
55032;BME280;40928;51.076;7.950;2023-03-20T06:29:15;97298.16;;;6.16;100.00
55032;BME280;40928;51.076;7.950;2023-03-20T06:31:41;97293.03;;;6.08;100.00
55032;BME280;40928;51.076;7.950;2023-03-20T06:34:11;97284.47;;;5.99;100.00
55032;BME280;40928;51.076;7.950;2023-03-20T06:36:42;97274.66;;;5.86;100.00
55032;BME280;40928;51.076;7.950;2023-03-20T06:39:15;97283.28;;;6.02;100.00
55032;BME280;40928;51.076;7.950;2023-03-20T06:41:40;97284.69;;;6.04;100.00
55032;BME280;40928;51.076;7.950;2023-03-20T06:44:08;97286.53;;;6.04;100.00
55032;BME280;40928;51.076;7.950;2023-03-20T06:46:52;97280.84;;;6.07;100.00
55032;BME280;40928;51.076;7.950;2023-03-20T06:49:18;97272.88;;;6.07;100.00
55032;BME280;40928;51.076;7.950;2023-03-20T06:51:44;97275.09;;;6.03;100.00
55032;BME280;40928;51.076;7.950;2023-03-20T06:54:14;97266.34;;;6.03;100.00
55032;BME280;40928;51.076;7.950;2023-03-20T06:56:40;97279.59;;;6.09;100.00
55032;BME280;40928;51.076;7.950;2023-03-20T06:59:06;97281.41;;;6.09;100.00
55032;BME280;40928;51.076;7.950;2023-03-20T07:01:32;97285.31;;;6.06;100.00
55032;BME280;40928;51.076;7.950;2023-03-20T07:03:57;97288.34;;;6.10;100.00
55032;BME280;40928;51.076;7.950;2023-03-20T07:06:29;97297.16;;;6.11;100.00
55032;BME280;40928;51.076;7.950;2023-03-20T07:08:54;97287.78;;;6.15;100.00
55032;BME280;40928;51.076;7.950;2023-03-20T07:11:20;97291.84;;;6.11;100.00
55032;BME280;40928;51.076;7.950;2023-03-20T07:13:47;97290.59;;;6.13;100.00
55032;BME280;40928;51.076;7.950;2023-03-20T07:16:27;97298.16;;;6.09;100.00
55032;BME280;40928;51.076;7.950;2023-03-20T07:18:52;97299.41;;;6.14;100.00
55032;BME280;40928;51.076;7.950;2023-03-20T07:21:20;97300.41;;;6.19;100.00
55032;BME280;40928;51.076;7.950;2023-03-20T07:23:47;97309.78;;;6.22;100.00
55032;BME280;40928;51.076;7.950;2023-03-20T07:26:13;97318.38;;;6.24;100.00
55032;BME280;40928;51.076;7.950;2023-03-20T07:28:38;97320.00;;;6.32;100.00
55032;BME280;40928;51.076;7.950;2023-03-20T07:31:21;97314.91;;;6.30;100.00
55032;BME280;40928;51.076;7.950;2023-03-20T07:33:51;97318.75;;;6.34;100.00
55032;BME280;40928;51.076;7.950;2023-03-20T07:36:17;97317.53;;;6.23;100.00
55032;BME280;40928;51.076;7.950;2023-03-20T07:38:43;97325.09;;;6.20;100.00
55032;BME280;40928;51.076;7.950;2023-03-20T07:41:09;97324.91;;;6.21;100.00
55032;BME280;40928;51.076;7.950;2023-03-20T07:43:40;97323.44;;;6.19;100.00
55032;BME280;40928;51.076;7.950;2023-03-20T07:46:18;97330.38;;;6.06;100.00
55032;BME280;40928;51.076;7.950;2023-03-20T07:48:43;97331.22;;;6.20;100.00
55032;BME280;40928;51.076;7.950;2023-03-20T07:51:09;97329.19;;;6.22;100.00
55032;BME280;40928;51.076;7.950;2023-03-20T07:53:35;97324.06;;;6.28;100.00
55032;BME280;40928;51.076;7.950;2023-03-20T07:56:02;97326.31;;;6.24;100.00
55032;BME280;40928;51.076;7.950;2023-03-20T07:58:30;97326.09;;;6.32;100.00
55032;BME280;40928;51.076;7.950;2023-03-20T08:00:57;97318.97;;;6.33;100.00
55032;BME280;40928;51.076;7.950;2023-03-20T08:03:23;97332.03;;;6.41;100.00
55032;BME280;40928;51.076;7.950;2023-03-20T08:05:48;97341.00;;;6.47;100.00
55032;BME280;40928;51.076;7.950;2023-03-20T08:08:14;97329.38;;;6.61;100.00
55032;BME280;40928;51.076;7.950;2023-03-20T08:10:39;97339.16;;;6.61;100.00
55032;BME280;40928;51.076;7.950;2023-03-20T08:13:05;97340.00;;;6.68;100.00
55032;BME280;40928;51.076;7.950;2023-03-20T08:15:31;97342.44;;;6.69;100.00
55032;BME280;40928;51.076;7.950;2023-03-20T08:17:56;97352.25;;;6.69;100.00
55032;BME280;40928;51.076;7.950;2023-03-20T08:20:23;97357.94;;;6.66;100.00
55032;BME280;40928;51.076;7.950;2023-03-20T08:22:49;97350.59;;;6.68;100.00
55032;BME280;40928;51.076;7.950;2023-03-20T08:25:15;97353.84;;;6.70;100.00
55032;BME280;40928;51.076;7.950;2023-03-20T08:27:41;97349.13;;;6.79;100.00
55032;BME280;40928;51.076;7.950;2023-03-20T08:30:07;97364.25;;;6.78;100.00
55032;BME280;40928;51.076;7.950;2023-03-20T08:32:34;97366.09;;;6.71;100.00
55032;BME280;40928;51.076;7.950;2023-03-20T08:35:00;97370.19;;;6.74;100.00
55032;BME280;40928;51.076;7.950;2023-03-20T08:37:26;97371.38;;;6.78;100.00
55032;BME280;40928;51.076;7.950;2023-03-20T08:39:52;97374.88;;;6.78;100.00
55032;BME280;40928;51.076;7.950;2023-03-20T08:42:18;97367.31;;;6.75;100.00
55032;BME280;40928;51.076;7.950;2023-03-20T08:44:43;97362.63;;;6.70;100.00
55032;BME280;40928;51.076;7.950;2023-03-20T08:47:09;97349.38;;;6.70;100.00
55032;BME280;40928;51.076;7.950;2023-03-20T08:49:36;97352.22;;;6.55;100.00
55032;BME280;40928;51.076;7.950;2023-03-20T08:52:02;97358.34;;;6.69;100.00
55032;BME280;40928;51.076;7.950;2023-03-20T08:54:28;97367.94;;;6.77;100.00
55032;BME280;40928;51.076;7.950;2023-03-20T08:56:53;97377.94;;;6.82;100.00
55032;BME280;40928;51.076;7.950;2023-03-20T08:59:19;97384.25;;;6.94;100.00
55032;BME280;40928;51.076;7.950;2023-03-20T09:01:45;97380.38;;;6.90;100.00
55032;BME280;40928;51.076;7.950;2023-03-20T09:04:12;97376.72;;;6.91;100.00
55032;BME280;40928;51.076;7.950;2023-03-20T09:06:39;97377.13;;;6.68;100.00
55032;BME280;40928;51.076;7.950;2023-03-20T09:09:05;97377.72;;;6.70;100.00
55032;BME280;40928;51.076;7.950;2023-03-20T09:11:31;97384.88;;;6.69;100.00
55032;BME280;40928;51.076;7.950;2023-03-20T09:13:57;97377.94;;;6.75;100.00
55032;BME280;40928;51.076;7.950;2023-03-20T09:16:23;97385.50;;;6.72;100.00
55032;BME280;40928;51.076;7.950;2023-03-20T09:18:49;97377.13;;;6.81;100.00
55032;BME280;40928;51.076;7.950;2023-03-20T09:21:14;97378.53;;;6.91;100.00
55032;BME280;40928;51.076;7.950;2023-03-20T09:23:40;97386.88;;;7.01;100.00
55032;BME280;40928;51.076;7.950;2023-03-20T09:26:05;97385.44;;;7.12;100.00
55032;BME280;40928;51.076;7.950;2023-03-20T09:28:31;97391.97;;;7.16;100.00
55032;BME280;40928;51.076;7.950;2023-03-20T09:30:57;97384.41;;;7.20;100.00
55032;BME280;40928;51.076;7.950;2023-03-20T09:33:23;97384.00;;;7.23;100.00
55032;BME280;40928;51.076;7.950;2023-03-20T09:35:49;97377.03;;;7.28;100.00
55032;BME280;40928;51.076;7.950;2023-03-20T09:38:15;97379.28;;;7.31;100.00
55032;BME280;40928;51.076;7.950;2023-03-20T09:43:17;97385.13;;;7.54;100.00
55032;BME280;40928;51.076;7.950;2023-03-20T09:46:04;97376.88;;;7.75;100.00
55032;BME280;40928;51.076;7.950;2023-03-20T09:48:48;97370.56;;;8.08;100.00
55032;BME280;40928;51.076;7.950;2023-03-20T09:51:24;97379.31;;;8.48;96.42
55032;BME280;40928;51.076;7.950;2023-03-20T09:53:55;97382.78;;;8.74;91.67
55032;BME280;40928;51.076;7.950;2023-03-20T09:56:26;97373.00;;;9.11;91.01
55032;BME280;40928;51.076;7.950;2023-03-20T09:58:55;97368.28;;;9.69;88.69
55032;BME280;40928;51.076;7.950;2023-03-20T10:01:23;97378.28;;;9.55;88.08
55032;BME280;40928;51.076;7.950;2023-03-20T10:04:03;97378.22;;;9.25;86.89
55032;BME280;40928;51.076;7.950;2023-03-20T10:06:32;97380.13;;;8.74;87.67
55032;BME280;40928;51.076;7.950;2023-03-20T10:08:58;97372.59;;;8.71;89.82
55032;BME280;40928;51.076;7.950;2023-03-20T10:14:22;97373.06;;;8.86;89.28
55032;BME280;40928;51.076;7.950;2023-03-20T10:20:21;97364.06;;;9.06;86.82
55032;BME280;40928;51.076;7.950;2023-03-20T10:22:49;97367.81;;;8.98;86.52
55032;BME280;40928;51.076;7.950;2023-03-20T10:30:27;97369.94;;;8.71;87.91
55032;BME280;40928;51.076;7.950;2023-03-20T10:33:24;97368.38;;;8.63;88.93
55032;BME280;40928;51.076;7.950;2023-03-20T10:41:09;97374.28;;;8.33;93.57
55032;BME280;40928;51.076;7.950;2023-03-20T10:43:39;97354.88;;;8.26;92.83
55032;BME280;40928;51.076;7.950;2023-03-20T10:46:15;97356.13;;;8.23;93.98
55032;BME280;40928;51.076;7.950;2023-03-20T10:48:55;97360.22;;;8.26;94.71
55032;BME280;40928;51.076;7.950;2023-03-20T10:51:33;97343.22;;;8.27;94.23
55032;BME280;40928;51.076;7.950;2023-03-20T10:54:03;97344.38;;;8.37;94.63
55032;BME280;40928;51.076;7.950;2023-03-20T10:56:39;97345.94;;;8.45;91.97
55032;BME280;40928;51.076;7.950;2023-03-20T10:59:23;97335.13;;;8.40;92.51
55032;BME280;40928;51.076;7.950;2023-03-20T11:01:50;97338.28;;;8.30;92.68
55032;BME280;40928;51.076;7.950;2023-03-20T11:04:16;97343.53;;;8.37;92.64
55032;BME280;40928;51.076;7.950;2023-03-20T11:06:58;97341.16;;;8.29;89.29
55032;BME280;40928;51.076;7.950;2023-03-20T11:09:25;97339.41;;;8.16;89.20
55032;BME280;40928;51.076;7.950;2023-03-20T11:11:58;97334.41;;;8.26;89.92
55032;BME280;40928;51.076;7.950;2023-03-20T11:14:36;97333.91;;;8.36;90.47
55032;BME280;40928;51.076;7.950;2023-03-20T11:17:04;97335.19;;;8.33;91.38
55032;BME280;40928;51.076;7.950;2023-03-20T11:19:35;97328.78;;;8.41;89.64
55032;BME280;40928;51.076;7.950;2023-03-20T11:22:08;97338.03;;;8.38;88.68
55032;BME280;40928;51.076;7.950;2023-03-20T11:24:41;97325.19;;;8.29;88.17
55032;BME280;40928;51.076;7.950;2023-03-20T11:27:19;97334.84;;;8.23;87.23
55032;BME280;40928;51.076;7.950;2023-03-20T11:29:49;97336.88;;;8.28;87.61
55032;BME280;40928;51.076;7.950;2023-03-20T11:32:31;97327.06;;;8.21;86.43
55032;BME280;40928;51.076;7.950;2023-03-20T11:37:53;97328.09;;;8.20;87.54
55032;BME280;40928;51.076;7.950;2023-03-20T11:40:24;97332.31;;;8.03;86.98
55032;BME280;40928;51.076;7.950;2023-03-20T11:42:53;97329.03;;;8.07;86.95
55032;BME280;40928;51.076;7.950;2023-03-20T11:45:19;97323.53;;;8.02;86.68
55032;BME280;40928;51.076;7.950;2023-03-20T11:47:50;97326.41;;;8.26;87.13
55032;BME280;40928;51.076;7.950;2023-03-20T11:50:36;97317.25;;;8.22;86.57
55032;BME280;40928;51.076;7.950;2023-03-20T11:53:24;97316.31;;;8.35;87.60
55032;BME280;40928;51.076;7.950;2023-03-20T11:56:10;97324.19;;;8.55;86.63
55032;BME280;40928;51.076;7.950;2023-03-20T11:59:12;97312.53;;;8.56;84.83
55032;BME280;40928;51.076;7.950;2023-03-20T12:01:42;97312.06;;;8.59;85.58
55032;BME280;40928;51.076;7.950;2023-03-20T12:04:16;97307.81;;;8.51;83.86
55032;BME280;40928;51.076;7.950;2023-03-20T12:06:46;97307.78;;;8.58;85.27
55032;BME280;40928;51.076;7.950;2023-03-20T12:09:35;97313.91;;;8.59;86.43
55032;BME280;40928;51.076;7.950;2023-03-20T12:12:10;97305.69;;;8.60;87.34
55032;BME280;40928;51.076;7.950;2023-03-20T12:14:56;97301.13;;;8.42;87.97
55032;BME280;40928;51.076;7.950;2023-03-20T12:17:52;97297.50;;;8.36;89.46
55032;BME280;40928;51.076;7.950;2023-03-20T12:20:39;97304.28;;;8.32;88.11
55032;BME280;40928;51.076;7.950;2023-03-20T12:23:14;97294.72;;;8.25;89.91
55032;BME280;40928;51.076;7.950;2023-03-20T12:26:05;97300.28;;;8.23;90.19
55032;BME280;40928;51.076;7.950;2023-03-20T12:28:55;97287.88;;;8.10;90.71
55032;BME280;40928;51.076;7.950;2023-03-20T12:31:34;97289.88;;;8.15;90.58
55032;BME280;40928;51.076;7.950;2023-03-20T12:34:10;97295.09;;;8.28;91.21
55032;BME280;40928;51.076;7.950;2023-03-20T12:36:41;97293.31;;;8.22;89.43
55032;BME280;40928;51.076;7.950;2023-03-20T12:39:13;97293.47;;;8.27;88.56
55032;BME280;40928;51.076;7.950;2023-03-20T12:42:08;97287.28;;;8.08;88.50
55032;BME280;40928;51.076;7.950;2023-03-20T13:00:28;97283.00;;;7.75;89.79
55032;BME280;40928;51.076;7.950;2023-03-20T13:05:46;97277.06;;;7.73;89.94
55032;BME280;40928;51.076;7.950;2023-03-20T13:08:37;97279.31;;;7.76;91.11
55032;BME280;40928;51.076;7.950;2023-03-20T13:11:39;97277.31;;;7.71;90.96
55032;BME280;40928;51.076;7.950;2023-03-20T13:20:08;97273.63;;;7.72;93.00
55032;BME280;40928;51.076;7.950;2023-03-20T13:28:29;97273.81;;;7.71;93.52
55032;BME280;40928;51.076;7.950;2023-03-20T13:31:26;97279.31;;;7.76;95.40
55032;BME280;40928;51.076;7.950;2023-03-20T13:41:46;97272.38;;;7.36;96.83
55032;BME280;40928;51.076;7.950;2023-03-20T13:44:17;97269.97;;;7.28;99.61
55032;BME280;40928;51.076;7.950;2023-03-20T13:49:32;97271.41;;;7.24;100.00
55032;BME280;40928;51.076;7.950;2023-03-20T13:52:08;97275.91;;;7.16;100.00
55032;BME280;40928;51.076;7.950;2023-03-20T14:03:39;97269.50;;;6.92;100.00
55032;BME280;40928;51.076;7.950;2023-03-20T14:08:53;97269.88;;;6.96;100.00
55032;BME280;40928;51.076;7.950;2023-03-20T14:14:02;97265.00;;;6.86;100.00
55032;BME280;40928;51.076;7.950;2023-03-20T14:16:29;97270.31;;;6.86;100.00
55032;BME280;40928;51.076;7.950;2023-03-20T14:19:24;97267.66;;;6.93;100.00
55032;BME280;40928;51.076;7.950;2023-03-20T14:21:53;97266.00;;;6.92;100.00
55032;BME280;40928;51.076;7.950;2023-03-20T14:24:21;97275.84;;;6.84;100.00
55032;BME280;40928;51.076;7.950;2023-03-20T14:26:55;97269.31;;;6.87;100.00
55032;BME280;40928;51.076;7.950;2023-03-20T14:32:02;97262.31;;;6.99;100.00
55032;BME280;40928;51.076;7.950;2023-03-20T14:34:52;97266.38;;;7.02;100.00
55032;BME280;40928;51.076;7.950;2023-03-20T14:40:15;97266.22;;;6.97;100.00
55032;BME280;40928;51.076;7.950;2023-03-20T14:42:56;97261.09;;;6.95;100.00
55032;BME280;40928;51.076;7.950;2023-03-20T14:48:56;97266.84;;;6.92;100.00
55032;BME280;40928;51.076;7.950;2023-03-20T14:51:43;97274.59;;;6.87;100.00
55032;BME280;40928;51.076;7.950;2023-03-20T14:54:26;97269.31;;;6.80;100.00
55032;BME280;40928;51.076;7.950;2023-03-20T14:56:52;97268.66;;;6.92;100.00
55032;BME280;40928;51.076;7.950;2023-03-20T14:59:22;97268.06;;;6.90;100.00
55032;BME280;40928;51.076;7.950;2023-03-20T15:06:57;97257.84;;;7.00;100.00
55032;BME280;40928;51.076;7.950;2023-03-20T15:09:26;97267.59;;;7.06;100.00
55032;BME280;40928;51.076;7.950;2023-03-20T15:11:52;97253.28;;;7.07;100.00
55032;BME280;40928;51.076;7.950;2023-03-20T15:14:25;97260.63;;;7.12;100.00
55032;BME280;40928;51.076;7.950;2023-03-20T15:16:58;97262.63;;;7.16;100.00
55032;BME280;40928;51.076;7.950;2023-03-20T15:19:25;97252.88;;;7.10;99.35
55032;BME280;40928;51.076;7.950;2023-03-20T15:21:52;97258.38;;;7.09;100.00
55032;BME280;40928;51.076;7.950;2023-03-20T15:24:21;97253.28;;;7.07;100.00
55032;BME280;40928;51.076;7.950;2023-03-20T15:26:51;97247.75;;;7.09;100.00
55032;BME280;40928;51.076;7.950;2023-03-20T15:29:18;97252.47;;;7.13;100.00
55032;BME280;40928;51.076;7.950;2023-03-20T15:31:44;97247.13;;;7.20;97.98
55032;BME280;40928;51.076;7.950;2023-03-20T15:34:21;97254.28;;;7.13;98.16
55032;BME280;40928;51.076;7.950;2023-03-20T15:36:47;97252.06;;;7.10;99.22
55032;BME280;40928;51.076;7.950;2023-03-20T15:39:20;97242.66;;;7.07;100.00
55032;BME280;40928;51.076;7.950;2023-03-20T15:41:56;97243.91;;;7.05;100.00
55032;BME280;40928;51.076;7.950;2023-03-20T15:44:24;97251.44;;;7.14;100.00
55032;BME280;40928;51.076;7.950;2023-03-20T15:47:11;97240.38;;;7.18;100.00